Time;durP1;ratioP1;P1;durP2;ratioP2;P2;SDS_P1;SDS_P2;PMS_P1;PMS_P2;Temp;Humidity;BMP_temperature;BMP_pressure;BME280_temperature;BME280_humidity;BME280_pressure;Samples;Min_cycle;Max_cycle;Signal;HPM_P1;HPM_P2
2022/09/23 00:01:27;;;;;;;35.20;29.80;;;;;;;8.80;68.06;101003.73;108372;1279;21999;-83
2022/09/23 00:04:10;;;;;;;32.30;28.30;;;;;;;8.74;68.03;101005.93;108402;1279;21990;-83
2022/09/23 00:06:42;;;;;;;32.20;26.70;;;;;;;8.69;68.34;101006.19;108507;1273;24396;-83
2022/09/23 00:09:18;;;;;;;30.50;26.70;;;;;;;8.66;68.50;101001.76;108744;1273;21986;-82
2022/09/23 00:11:50;;;;;;;27.20;23.80;;;;;;;8.62;68.56;101002.00;108789;1273;23794;-82
2022/09/23 00:14:20;;;;;;;29.80;25.40;;;;;;;8.59;68.76;101000.66;108727;1273;22112;-82
2022/09/23 00:16:56;;;;;;;29.20;25.40;;;;;;;8.55;68.75;100995.88;108752;1272;23819;-82
2022/09/23 00:19:30;;;;;;;26.10;22.40;;;;;;;8.51;68.66;100994.92;108756;1273;21985;-82
2022/09/23 00:21:59;;;;;;;30.20;22.90;;;;;;;8.46;68.72;100991.88;108739;1273;23096;-82
2022/09/23 00:24:31;;;;;;;27.80;22.70;;;;;;;8.42;68.74;100990.04;108724;1273;23089;-82
2022/09/23 00:27:21;;;;;;;23.50;20.90;;;;;;;8.35;68.70;100989.81;108292;1277;23872;-83
2022/09/23 00:30:02;;;;;;;26.40;23.30;;;;;;;8.30;68.85;100996.13;108404;1276;22103;-82
2022/09/23 00:32:39;;;;;;;26.20;20.50;;;;;;;8.26;68.92;100991.02;108379;1282;23822;-82
2022/09/23 00:35:14;;;;;;;24.60;21.30;;;;;;;8.24;69.07;100990.53;108041;1285;22005;-82
2022/09/23 00:37:43;;;;;;;27.10;22.50;;;;;;;8.21;69.06;100989.20;107956;1285;24853;-82
2022/09/23 00:40:19;;;;;;;26.00;21.10;;;;;;;8.18;69.00;100988.55;107834;1285;23730;-83
2022/09/23 00:43:04;;;;;;;22.90;20.30;;;;;;;8.16;69.17;100990.66;107988;1285;22015;-81
2022/09/23 00:45:47;;;;;;;24.00;20.20;;;;;;;8.12;69.07;100991.44;107659;1288;22008;-82
2022/09/23 00:48:19;;;;;;;24.70;21.20;;;;;;;8.06;69.09;100986.84;107954;1285;22002;-82
2022/09/23 00:50:56;;;;;;;25.70;19.30;;;;;;;8.01;69.05;100986.06;107326;1293;22010;-82
2022/09/23 00:53:27;;;;;;;25.60;19.60;;;;;;;7.98;69.12;100985.09;106519;1296;22016;-81
2022/09/23 00:56:09;;;;;;;22.90;18.40;;;;;;;7.94;69.32;100984.27;106829;1296;22016;-82
2022/09/23 00:58:55;;;;;;;24.30;19.50;;;;;;;7.89;69.16;100984.55;107212;1293;22013;-82
2022/09/23 01:01:26;;;;;;;24.90;18.90;;;;;;;7.83;69.18;100982.38;107813;1288;22072;-83
2022/09/23 01:04:04;;;;;;;22.10;19.20;;;;;;;7.80;69.35;100983.14;107794;1281;23836;-82
2022/09/23 01:06:41;;;;;;;30.40;18.90;;;;;;;7.77;69.29;100986.11;108100;1283;23794;-82
2022/09/23 01:09:15;;;;;;;27.30;20.40;;;;;;;7.74;69.42;100981.50;108168;1276;21994;-83
2022/09/23 01:12:18;;;;;;;27.20;18.60;;;;;;;7.71;69.38;100981.20;108374;1273;22792;-83
2022/09/23 01:15:18;;;;;;;24.30;19.40;;;;;;;7.65;69.52;100981.11;108792;1271;21986;-83
2022/09/23 01:18:30;;;;;;;23.20;19.30;;;;;;;7.60;69.49;100978.41;108751;1273;22040;-83
2022/09/23 01:21:30;;;;;;;23.60;18.80;;;;;;;7.55;69.53;100972.43;108746;1273;21988;-82
2022/09/23 01:24:46;;;;;;;23.90;19.20;;;;;;;7.49;69.64;100971.47;108456;1276;22062;-82
2022/09/23 01:27:33;;;;;;;22.20;18.30;;;;;;;7.43;69.67;100968.63;108250;1282;21998;-83
2022/09/23 01:30:35;;;;;;;22.30;18.40;;;;;;;7.38;69.68;100964.36;108258;1282;23120;-83
2022/09/23 01:33:27;;;;;;;26.20;19.20;;;;;;;7.35;69.91;100966.30;108275;1282;22139;-82
2022/09/23 01:36:33;;;;;;;28.50;19.80;;;;;;;7.33;69.76;100966.52;107862;1288;22023;-81
2022/09/23 01:39:53;;;;;;;27.20;19.70;;;;;;;7.28;69.81;100967.27;107836;1287;22030;-81
2022/09/23 01:42:40;;;;;;;23.80;18.00;;;;;;;7.23;69.79;100966.83;107928;1287;22027;-82
2022/09/23 01:45:47;;;;;;;;;;;;;;;;;;;;;
2022/09/23 01:48:48;;;;;;;24.80;19.20;;;;;;;7.17;69.92;100966.05;108177;1282;22470;-82
2022/09/23 01:51:40;;;;;;;24.80;19.40;;;;;;;7.13;69.90;100961.95;108246;1282;22602;-82
2022/09/23 01:54:37;;;;;;;24.00;18.70;;;;;;;7.13;69.91;100963.70;108348;1276;23673;-82
2022/09/23 01:57:22;;;;;;;22.50;18.10;;;;;;;7.09;69.93;100962.01;108328;1278;22113;-82
2022/09/23 02:00:03;;;;;;;;;;;;;;;7.05;69.90;100962.77;108509;1279;23576;-81
2022/09/23 02:02:55;;;;;;;21.10;17.20;;;;;;;6.92;69.94;100960.34;108734;1273;21987;-81
2022/09/23 02:05:42;;;;;;;21.90;19.00;;;;;;;6.89;70.02;100957.78;108655;1276;21992;-82
2022/09/23 02:08:30;;;;;;;23.40;17.80;;;;;;;6.87;69.99;100951.92;108341;1276;22021;-82
2022/09/23 02:11:14;;;;;;;21.30;18.10;;;;;;;6.86;70.15;100956.26;108332;1276;22441;-81
2022/09/23 02:14:01;;;;;;;23.20;18.50;;;;;;;6.85;70.22;100956.96;108477;1276;23706;-81
2022/09/23 02:16:54;;;;;;;20.30;18.10;;;;;;;6.84;70.15;100956.28;108299;1282;22004;-81
2022/09/23 02:20:14;;;;;;;25.30;17.00;;;;;;;6.82;70.18;100957.52;107722;1287;22108;-82
2022/09/23 02:23:03;;;;;;;23.10;18.30;;;;;;;6.76;70.35;100955.16;107939;1285;23778;-81
2022/09/23 02:26:07;;;;;;;21.80;16.80;;;;;;;6.73;70.15;100957.46;108310;1282;22009;-80
2022/09/23 02:28:58;;;;;;;26.50;18.70;;;;;;;6.69;70.01;100950.40;107583;1290;25012;-81
2022/09/23 02:31:53;;;;;;;23.80;17.90;;;;;;;6.65;70.11;100956.51;107857;1287;22001;-81
2022/09/23 02:35:18;;;;;;;21.80;17.80;;;;;;;6.62;70.12;100961.39;107702;1282;23635;-81
2022/09/23 02:38:28;;;;;;;17.80;15.90;;;;;;;6.57;70.20;100962.15;107981;1284;22030;-81
2022/09/23 02:41:44;;;;;;;20.50;17.60;;;;;;;6.52;70.27;100963.24;108110;1284;22011;-81
2022/09/23 02:44:19;;;;;;;22.50;16.50;;;;;;;6.48;70.31;100962.95;108067;1287;22022;-82
2022/09/23 02:47:00;;;;;;;19.80;16.10;;;;;;;6.47;70.44;100965.55;107293;1291;22474;-81
2022/09/23 02:49:35;;;;;;;21.90;16.30;;;;;;;6.46;70.32;100963.83;107309;1289;22018;-81
2022/09/23 02:52:06;;;;;;;20.40;15.80;;;;;;;6.45;70.47;100962.10;107328;1290;22200;-82
2022/09/23 02:54:40;;;;;;;20.40;17.60;;;;;;;6.43;70.33;100962.65;107300;1290;22041;-81
2022/09/23 02:57:17;;;;;;;24.70;18.60;;;;;;;6.42;70.42;100964.21;107336;1292;22015;-81
2022/09/23 02:59:56;;;;;;;22.40;19.20;;;;;;;6.40;70.50;100965.10;107434;1292;23108;-81
2022/09/23 03:03:05;;;;;;;25.90;19.20;;;;;;;6.38;70.48;100963.38;107250;1293;22044;-81
2022/09/23 03:05:54;;;;;;;24.60;19.80;;;;;;;6.35;70.36;100963.77;107630;1287;22013;-81
2022/09/23 03:08:56;;;;;;;24.40;19.60;;;;;;;6.33;70.41;100960.85;107936;1284;22913;-81
2022/09/23 03:11:30;;;;;;;26.50;20.30;;;;;;;6.31;70.68;100961.74;108128;1284;22107;-81
2022/09/23 03:14:39;;;;;;;25.30;19.30;;;;;;;6.31;70.75;100961.91;108467;1273;22032;-81
2022/09/23 03:17:24;;;;;;;23.60;19.70;;;;;;;6.29;70.67;100958.80;108842;1273;21984;-80
2022/09/23 03:20:19;;;;;;;22.80;19.00;;;;;;;6.28;70.73;100956.07;108521;1273;22659;-82
2022/09/23 03:22:59;;;;;;;25.80;20.50;;;;;;;6.28;70.79;100957.80;108882;1273;22314;-80
2022/09/23 03:25:35;;;;;;;27.00;19.20;;;;;;;6.27;70.69;100958.16;108482;1278;22022;-81
2022/09/23 03:28:12;;;;;;;21.60;18.50;;;;;;;6.26;70.81;100960.23;108525;1278;23764;-80
2022/09/23 03:30:51;;;;;;;25.20;19.90;;;;;;;6.27;71.02;100956.77;108363;1278;22060;-80
2022/09/23 03:33:27;;;;;;;25.00;19.50;;;;;;;6.28;70.99;100952.77;108383;1279;22137;-81
2022/09/23 03:39:18;;;;;;;30.00;19.00;;;;;;;6.27;70.94;100949.16;108621;1277;24477;-80
2022/09/23 03:41:51;;;;;;;27.00;19.60;;;;;;;6.24;70.73;100950.76;108355;1279;22042;-81
2022/09/23 03:44:22;;;;;;;25.00;18.70;;;;;;;6.23;70.80;100944.02;108584;1271;22059;-80
2022/09/23 03:46:58;;;;;;;29.40;20.20;;;;;;;6.22;70.82;100942.80;108714;1273;21983;-80
2022/09/23 03:49:38;;;;;;;27.50;22.60;;;;;;;6.21;70.89;100939.55;108682;1273;22891;-81
2022/09/23 03:52:18;;;;;;;27.30;21.20;;;;;;;6.19;70.80;100939.74;108800;1271;23493;-80
2022/09/23 03:54:57;;;;;;;29.80;20.10;;;;;;;6.17;70.83;100937.33;108676;1273;22018;-80
2022/09/23 03:57:35;;;;;;;27.30;20.90;;;;;;;6.16;70.84;100936.13;108747;1270;22046;-80
2022/09/23 04:00:11;;;;;;;29.40;21.50;;;;;;;6.14;70.91;100931.14;108978;1270;21998;-82
2022/09/23 04:02:43;;;;;;;27.80;22.10;;;;;;;6.13;70.96;100931.67;108824;1273;23693;-82
2022/09/23 04:05:20;;;;;;;32.10;23.10;;;;;;;6.11;70.81;100929.46;108752;1273;22059;-83
2022/09/23 04:07:51;;;;;;;36.20;25.50;;;;;;;6.08;70.91;100928.09;108739;1276;22688;-81
2022/09/23 04:10:26;;;;;;;29.20;24.90;;;;;;;6.08;70.90;100930.34;108704;1273;23586;-82
2022/09/23 04:12:57;;;;;;;33.40;26.30;;;;;;;6.09;71.08;100929.98;108682;1273;23061;-83
2022/09/23 04:15:40;;;;;;;35.00;26.80;;;;;;;6.08;71.15;100931.55;108604;1273;21996;-81
2022/09/23 04:18:27;;;;;;;;;;;;;;;6.07;71.24;100926.55;108415;1279;22213;-82
2022/09/23 04:21:29;;;;;;;41.20;31.50;;;;;;;5.99;71.29;100935.44;108398;1279;22052;-82
2022/09/23 04:24:09;;;;;;;36.90;31.10;;;;;;;5.97;71.26;100934.95;108174;1282;22933;-83
2022/09/23 04:26:52;;;;;;;42.50;33.30;;;;;;;5.96;71.28;100935.11;108344;1276;23116;-82
2022/09/23 04:29:35;;;;;;;38.60;32.10;;;;;;;5.97;71.30;100937.71;108481;1276;23082;-81
2022/09/23 04:32:17;;;;;;;43.30;35.00;;;;;;;5.99;71.33;100938.73;108509;1276;22781;-80
2022/09/23 04:34:53;;;;;;;37.80;33.20;;;;;;;5.99;71.38;100939.07;108576;1279;22048;-82
2022/09/23 04:37:29;;;;;;;49.50;36.80;;;;;;;6.01;71.33;100935.08;108482;1277;21990;-82
2022/09/23 04:40:07;;;;;;;46.70;35.10;;;;;;;6.00;71.20;100935.08;108295;1282;22998;-80
2022/09/23 04:42:47;;;;;;;46.00;34.20;;;;;;;6.00;71.13;100933.88;108209;1281;22016;-80
2022/09/23 04:45:23;;;;;;;41.70;32.40;;;;;;;6.00;71.28;100934.40;107918;1281;22244;-81
2022/09/23 04:48:08;;;;;;;49.00;33.60;;;;;;;5.98;71.19;100935.61;108012;1287;22105;-81
2022/09/23 04:51:25;;;;;;;46.20;32.90;;;;;;;5.96;71.32;100934.42;108352;1282;23089;-80
2022/09/23 04:54:01;;;;;;;39.80;29.30;;;;;;;5.96;71.40;100935.11;107847;1285;23747;-80
2022/09/23 04:56:33;;;;;;;36.60;30.30;;;;;;;5.96;71.41;100934.94;107222;1288;22011;-80
2022/09/23 04:59:08;;;;;;;37.30;30.60;;;;;;;5.95;71.22;100934.25;107509;1289;23682;-79
2022/09/23 05:01:42;;;;;;;34.90;28.60;;;;;;;5.95;71.16;100937.02;107463;1289;22023;-80
2022/09/23 05:04:13;;;;;;;36.40;30.90;;;;;;;5.95;71.30;100937.36;107282;1293;22030;-80
2022/09/23 05:06:59;;;;;;;39.60;32.10;;;;;;;5.96;71.38;100939.43;107420;1289;23644;-81
2022/09/23 05:09:41;;;;;;;41.60;33.40;;;;;;;5.99;71.40;100939.76;107649;1289;23688;-81
2022/09/23 05:12:22;;;;;;;40.80;32.60;;;;;;;6.02;71.51;100940.95;107582;1288;22025;-80
2022/09/23 05:14:58;;;;;;;49.10;32.50;;;;;;;6.05;71.66;100940.74;108078;1281;22007;-78
2022/09/23 05:17:30;;;;;;;39.20;32.10;;;;;;;6.08;71.59;100936.73;108371;1281;23756;-79
2022/09/23 05:20:06;;;;;;;40.30;31.80;;;;;;;6.11;71.57;100938.96;108175;1279;23630;-80
2022/09/23 05:22:46;;;;;;;43.10;30.90;;;;;;;6.15;71.72;100941.16;108405;1273;21995;-81
2022/09/23 05:26:05;;;;;;;42.40;34.40;;;;;;;6.16;71.83;100932.67;108389;1280;22077;-81
2022/09/23 05:28:57;;;;;;;39.90;35.40;;;;;;;6.24;71.98;100942.63;108326;1279;23080;-81
2022/09/23 05:31:36;;;;;;;42.10;35.30;;;;;;;6.29;71.99;100941.37;107961;1285;22011;-81
2022/09/23 05:34:11;;;;;;;;;;;;;;;6.34;71.95;100942.69;107949;1284;23083;-77
2022/09/23 05:36:40;;;;;;;43.80;33.50;;;;;;;6.30;72.15;100942.38;108028;1283;24473;-77
2022/09/23 05:39:14;;;;;;;43.30;33.90;;;;;;;6.32;71.92;100941.84;107742;1283;22013;-81
2022/09/23 05:41:49;;;;;;;43.60;32.70;;;;;;;6.37;72.20;100939.55;107974;1285;22603;-82
2022/09/23 05:44:38;;;;;;;45.50;32.60;;;;;;;6.45;72.38;100942.39;108413;1276;22001;-81
2022/09/23 05:47:21;;;;;;;41.60;31.50;;;;;;;6.55;72.39;100937.61;108418;1276;23702;-81
2022/09/23 05:50:02;;;;;;;39.40;33.10;;;;;;;6.62;72.32;100939.26;108500;1276;22001;-80
2022/09/23 05:52:56;;;;;;;49.10;33.40;;;;;;;6.70;72.36;100934.48;108624;1276;23047;-83
2022/09/23 05:55:43;;;;;;;;;;;;;;;;;;;;;
2022/09/23 05:58:37;;;;;;;;;;;;;;;6.86;72.28;100937.06;108357;1279;23086;-81
2022/09/23 06:01:23;;;;;;;45.60;36.40;;;;;;;6.85;72.62;100937.77;108305;1279;23039;-79
2022/09/23 06:04:00;;;;;;;43.40;33.50;;;;;;;6.91;72.53;100939.41;108361;1279;21993;-83
2022/09/23 06:06:41;;;;;;;38.70;34.50;;;;;;;7.01;72.43;100938.06;107866;1285;23713;-81
2022/09/23 06:09:31;;;;;;;42.50;32.20;;;;;;;7.13;72.47;100937.73;107930;1283;23088;-87
2022/09/23 06:12:48;;;;;;;44.50;32.80;;;;;;;7.24;72.52;100935.33;108171;1282;22066;-82
2022/09/23 06:15:37;;;;;;;43.00;34.90;;;;;;;7.36;72.65;100931.68;108147;1279;23034;-77
2022/09/23 06:18:16;;;;;;;50.20;33.40;;;;;;;7.51;72.68;100933.35;108346;1278;22004;-80
2022/09/23 06:21:05;;;;;;;43.80;32.90;;;;;;;7.66;72.62;100936.92;108394;1279;23095;-81
2022/09/23 06:24:23;;;;;;;;;;;;;;;;;;;;;
2022/09/23 06:27:15;;;;;;;44.00;33.20;;;;;;;7.99;72.50;100943.31;108727;1272;25120;-81
2022/09/23 06:30:05;;;;;;;48.40;34.20;;;;;;;8.18;72.47;100942.61;108753;1273;21988;-80
2022/09/23 06:32:36;;;;;;;45.30;34.20;;;;;;;8.41;72.80;100942.20;108908;1270;23090;-80
2022/09/23 06:35:09;;;;;;;53.20;35.70;;;;;;;8.73;73.09;100942.08;108951;1270;22104;-81
2022/09/23 06:38:01;;;;;;;41.70;34.40;;;;;;;9.18;73.91;100942.67;108704;1273;22000;-81
2022/09/23 06:40:49;;;;;;;40.10;32.60;;;;;;;9.74;74.20;100940.30;108658;1276;22038;-81
2022/09/23 06:43:20;;;;;;;44.40;33.70;;;;;;;10.26;73.60;100939.15;108639;1276;23155;-81
2022/09/23 06:46:02;;;;;;;72.80;61.20;;;;;;;10.80;73.44;100939.91;108656;1274;22004;-80
2022/09/23 06:48:54;;;;;;;46.10;36.40;;;;;;;11.39;72.40;100941.45;108550;1276;22046;-82
2022/09/23 06:51:29;;;;;;;45.70;35.40;;;;;;;11.84;71.06;100945.21;108561;1276;22008;-81
2022/09/23 06:54:07;;;;;;;41.20;33.00;;;;;;;12.28;69.97;100944.58;108423;1279;22037;-81
2022/09/23 06:56:46;;;;;;;43.00;33.90;;;;;;;12.72;68.43;100942.98;108020;1279;22070;-81
2022/09/23 06:59:32;;;;;;;60.30;50.30;;;;;;;12.99;65.93;100942.33;108527;1276;22203;-82
2022/09/23 07:02:10;;;;;;;45.20;35.70;;;;;;;13.07;64.45;100942.20;108602;1276;22537;-82
2022/09/23 07:04:56;;;;;;;48.10;36.40;;;;;;;13.16;64.01;100944.67;108787;1276;22996;-83
2022/09/23 07:07:38;;;;;;;42.90;33.80;;;;;;;13.44;64.24;100942.88;108453;1276;21997;-83
2022/09/23 07:10:17;;;;;;;53.40;33.60;;;;;;;13.77;63.34;100944.34;108630;1276;22030;-84
2022/09/23 07:12:50;;;;;;;43.50;33.20;;;;;;;13.99;62.21;100947.23;108934;1271;22046;-83
2022/09/23 07:15:33;;;;;;;;;;;;;;;;;;;;;
2022/09/23 07:18:09;;;;;;;50.20;34.20;;;;;;;14.55;61.22;100950.09;108749;1273;22294;-84
2022/09/23 07:20:39;;;;;;;57.10;39.00;;;;;;;14.81;59.79;100946.31;108745;1272;22093;-81
2022/09/23 07:23:17;;;;;;;46.30;29.80;;;;;;;15.06;59.10;100945.83;108379;1278;21992;-84
2022/09/23 07:26:02;;;;;;;50.10;31.70;;;;;;;15.38;59.18;100942.59;108629;1276;21996;-84
2022/09/23 07:28:33;;;;;;;59.30;33.10;;;;;;;15.74;58.66;100939.59;108388;1276;22037;-85
2022/09/23 07:31:18;;;;;;;29.10;21.00;;;;;;;16.02;57.11;100936.45;108461;1276;22139;-84
2022/09/23 07:34:10;;;;;;;31.30;23.80;;;;;;;16.31;56.53;100937.02;108067;1281;24414;-85
2022/09/23 07:36:53;;;;;;;25.20;21.70;;;;;;;16.59;55.92;100939.09;107774;1287;23080;-84
2022/09/23 07:39:47;;;;;;;31.10;22.90;;;;;;;16.85;55.48;100940.31;107608;1287;24122;-84
2022/09/23 07:42:27;;;;;;;31.20;21.80;;;;;;;17.08;54.66;100939.96;107889;1283;22001;-87
2022/09/23 07:45:01;;;;;;;35.10;21.40;;;;;;;17.37;54.55;100938.84;107829;1287;23605;-80
2022/09/23 07:47:42;;;;;;;35.80;28.90;;;;;;;17.60;53.23;100940.91;107364;1291;22218;-83
2022/09/23 07:50:25;;;;;;;30.20;24.60;;;;;;;17.60;51.93;100936.86;107442;1290;22003;-85
2022/09/23 07:53:10;;;;;;;28.40;25.30;;;;;;;17.71;52.39;100940.77;107452;1290;22338;-86
2022/09/23 07:55:58;;;;;;;28.10;25.20;;;;;;;17.79;52.03;100941.90;107590;1289;22020;-86
2022/09/23 07:59:17;;;;;;;29.70;25.70;;;;;;;17.94;51.47;100935.42;107814;1281;23064;-86
2022/09/23 08:01:56;;;;;;;30.70;24.50;;;;;;;17.98;51.16;100934.70;108145;1282;22029;-86
2022/09/23 08:05:04;;;;;;;28.70;24.40;;;;;;;17.97;50.53;100932.23;108482;1276;23697;-86
2022/09/23 08:07:48;;;;;;;30.60;21.30;;;;;;;18.00;50.78;100929.98;108785;1273;23782;-85
2022/09/23 08:10:26;;;;;;;24.70;21.30;;;;;;;17.91;49.96;100926.99;108730;1273;23692;-86
2022/09/23 08:13:19;;;;;;;21.40;16.70;;;;;;;17.85;50.56;100925.89;108804;1273;21997;-84
2022/09/23 08:16:00;;;;;;;23.90;17.10;;;;;;;17.94;50.93;100924.34;108860;1273;21952;-86
2022/09/23 08:18:38;;;;;;;15.00;13.30;;;;;;;18.11;51.00;100923.51;108802;1273;23607;-85
2022/09/23 08:21:30;;;;;;;;;;;;;;;;;;;;;
2022/09/23 08:24:22;;;;;;;17.30;13.50;;;;;;;18.14;50.11;100918.18;108840;1273;21994;-86
2022/09/23 08:27:00;;;;;;;17.50;14.50;;;;;;;18.02;48.98;100922.79;108942;1273;23653;-84
2022/09/23 08:29:41;;;;;;;17.60;15.30;;;;;;;17.75;49.25;100922.98;108864;1273;22051;-86
2022/09/23 08:32:21;;;;;;;16.80;15.00;;;;;;;17.77;50.26;100921.08;108660;1273;22122;-87
2022/09/23 08:35:01;;;;;;;17.20;14.40;;;;;;;17.80;49.53;100920.52;108694;1273;22809;-86
2022/09/23 08:37:47;;;;;;;;;;;;;;;;;;;;;
2022/09/23 08:40:36;;;;;;;22.70;13.60;;;;;;;17.32;49.79;100915.58;108882;1273;22353;-87
2022/09/23 08:43:35;;;;;;;18.10;13.70;;;;;;;17.30;50.59;100914.64;108879;1275;23805;-87
2022/09/23 08:46:47;;;;;;;18.90;13.30;;;;;;;17.33;50.44;100916.92;108710;1276;23606;-84
2022/09/23 08:50:00;;;;;;;15.40;12.40;;;;;;;17.41;50.30;100918.44;108744;1276;23069;-86
2022/09/23 08:52:57;;;;;;;14.70;11.70;;;;;;;17.33;49.94;100920.09;108741;1279;22010;-85
2022/09/23 08:55:59;;;;;;;15.10;11.00;;;;;;;17.18;50.04;100919.34;108763;1276;22018;-87
2022/09/23 08:58:58;;;;;;;14.90;10.70;;;;;;;17.06;50.25;100922.34;108843;1277;22068;-87
2022/09/23 09:02:13;;;;;;;;;;;;;;;;;;;;;
2022/09/23 09:05:14;;;;;;;9.80;8.70;;;;;;;17.40;51.64;100918.49;108990;1276;22008;-87
2022/09/23 09:08:06;;;;;;;9.50;8.50;;;;;;;17.79;50.80;100916.92;108929;1276;22801;-86
2022/09/23 09:10:46;;;;;;;11.00;7.30;;;;;;;17.99;49.27;100917.20;108621;1279;22076;-87
2022/09/23 09:13:42;;;;;;;6.90;6.20;;;;;;;18.19;49.28;100914.38;108544;1281;23764;-86
2022/09/23 09:16:45;;;;;;;7.10;6.20;;;;;;;18.33;48.34;100914.45;108571;1282;21969;-83
2022/09/23 09:20:16;;;;;;;6.90;5.20;;;;;;;18.27;47.62;100912.14;108490;1282;22462;-86
2022/09/23 09:23:13;;;;;;;6.20;4.40;;;;;;;18.16;47.07;100908.38;108511;1282;22112;-85
2022/09/23 09:26:14;;;;;;;9.30;5.50;;;;;;;18.04;46.68;100906.27;108401;1282;22091;-86
2022/09/23 09:29:29;;;;;;;;;;;;;;;;;;;;;
2022/09/23 09:32:37;;;;;;;6.40;4.80;;;;;;;17.55;47.15;100904.59;108069;1282;23065;-85
2022/09/23 09:35:38;;;;;;;;;;;;;;;;;;;;;
2022/09/23 09:38:22;;;;;;;5.90;5.10;;;;;;;17.45;48.92;100901.65;108349;1282;22030;-87
2022/09/23 09:41:41;;;;;;;;;;;;;;;;;;;;;
2022/09/23 09:44:52;;;;;;;11.40;5.90;;;;;;;17.47;47.25;100903.29;107989;1287;22021;-87
2022/09/23 09:48:29;;;;;;;;;;;;;;;;;;;;;
2022/09/23 09:51:31;;;;;;;5.70;4.90;;;;;;;17.22;48.39;100895.92;107940;1287;21885;-87
2022/09/23 09:54:27;;;;;;;6.10;5.10;;;;;;;17.47;48.30;100887.31;107631;1287;22479;-87
2022/09/23 09:58:04;;;;;;;6.80;5.00;;;;;;;17.78;48.12;100886.67;107785;1288;23615;-86
2022/09/23 10:00:55;;;;;;;;;;;;;;;;;;;;;
2022/09/23 10:03:44;;;;;;;7.10;4.80;;;;;;;18.49;46.82;100883.66;108189;1278;23042;-86
2022/09/23 10:06:35;;;;;;;7.90;4.90;;;;;;;18.75;45.77;100880.42;108437;1279;22464;-85
2022/09/23 10:09:17;;;;;;;4.60;3.00;;;;;;;18.99;44.37;100876.61;108402;1273;21995;-84
2022/09/23 10:12:24;;;;;;;6.00;3.50;;;;;;;19.06;42.97;100873.02;108686;1273;21991;-84
2022/09/23 10:15:43;;;;;;;6.50;5.70;;;;;;;19.05;41.37;100868.83;108764;1273;22074;-85
2022/09/23 10:18:45;;;;;;;5.10;4.00;;;;;;;19.08;41.17;100871.98;108715;1273;23673;-84
2022/09/23 10:21:34;;;;;;;10.90;4.50;;;;;;;19.29;41.46;100870.42;108006;1273;1074873;-85
2022/09/23 10:24:37;;;;;;;3.70;2.80;;;;;;;19.56;41.07;100862.33;108627;1273;22180;-86
2022/09/23 10:27:24;;;;;;;4.70;3.80;;;;;;;19.62;40.22;100860.14;108682;1273;21989;-83
2022/09/23 10:30:27;;;;;;;7.50;5.40;;;;;;;19.62;39.73;100862.23;108701;1273;21986;-85
2022/09/23 10:33:02;;;;;;;7.40;4.50;;;;;;;19.78;40.06;100863.66;108687;1271;23052;-84
2022/09/23 10:36:06;;;;;;;;;;;;;;;;;;;;;
2022/09/23 10:49:07;;;;;;;4.50;2.90;;;;;;;19.64;38.24;100841.24;108769;1278;22985;-83
2022/09/23 10:52:34;;;;;;;7.00;3.00;;;;;;;19.61;37.85;100842.55;108676;1277;23788;-85
2022/09/23 10:55:55;;;;;;;6.80;3.30;;;;;;;19.27;37.12;100840.75;108563;1279;23845;-84
2022/09/23 10:59:47;;;;;;;4.90;3.00;;;;;;;18.77;37.82;100835.87;108846;1273;23805;-85
2022/09/23 11:03:09;;;;;;;4.90;2.90;;;;;;;18.48;38.59;100836.68;108784;1273;21996;-82
2022/09/23 11:06:33;;;;;;;3.10;2.40;;;;;;;18.16;38.71;100835.13;108783;1273;22165;-81
2022/09/23 11:09:40;;;;;;;5.50;3.10;;;;;;;17.79;39.57;100840.17;108602;1279;21996;-82
2022/09/23 11:12:52;;;;;;;6.50;4.20;;;;;;;17.62;40.40;100837.85;108451;1279;23165;-80
2022/09/23 11:15:53;;;;;;;7.90;4.70;;;;;;;17.49;40.89;100833.14;108450;1279;21999;-86
2022/09/23 11:19:32;;;;;;;8.10;5.10;;;;;;;17.31;41.53;100834.88;108132;1284;23546;-83
2022/09/23 11:22:08;;;;;;;6.20;5.00;;;;;;;17.21;42.09;100831.78;108007;1285;22111;-81
2022/09/23 11:25:20;;;;;;;6.20;4.80;;;;;;;17.13;42.51;100826.77;108067;1284;23635;-81
2022/09/23 11:28:28;;;;;;;6.20;4.00;;;;;;;17.06;42.88;100825.41;107484;1290;21978;-83
2022/09/23 11:31:40;;;;;;;4.00;3.50;;;;;;;17.08;43.43;100820.78;107556;1290;22023;-85
2022/09/23 11:35:09;;;;;;;7.10;4.00;;;;;;;17.11;43.37;100813.70;107741;1290;22269;-87
2022/09/23 11:38:00;;;;;;;11.00;5.20;;;;;;;17.15;43.47;100808.22;108225;1285;21996;-85
2022/09/23 11:41:30;;;;;;;5.60;4.10;;;;;;;17.21;43.30;100804.15;108625;1285;22034;-87
2022/09/23 11:45:20;;;;;;;5.70;3.60;;;;;;;17.07;42.87;100801.84;107971;1291;23655;-85
2022/09/23 11:48:20;;;;;;;4.20;3.20;;;;;;;16.91;43.10;100797.46;107546;1292;24427;-89
2022/09/23 11:51:49;;;;;;;6.90;4.40;;;;;;;16.87;43.23;100793.30;107683;1291;23105;-87
2022/09/23 11:54:43;;;;;;;4.50;2.50;;;;;;;16.96;43.32;100792.10;107691;1293;22470;-88
2022/09/23 11:57:42;;;;;;;3.80;2.70;;;;;;;17.09;43.22;100790.27;107496;1293;22073;-84
2022/09/23 12:00:33;;;;;;;6.30;3.00;;;;;;;17.12;42.24;100790.48;107438;1293;22012;-82
2022/09/23 12:03:25;;;;;;;3.30;2.50;;;;;;;17.10;42.13;100788.46;107241;1293;22009;-83
2022/09/23 12:06:33;;;;;;;4.10;2.50;;;;;;;17.17;42.05;100784.71;107928;1287;22004;-81
2022/09/23 12:09:21;;;;;;;2.50;1.70;;;;;;;17.26;41.85;100779.98;107889;1287;23109;-82
2022/09/23 12:12:41;;;;;;;4.60;2.20;;;;;;;17.31;41.44;100780.23;107794;1287;22023;-82
2022/09/23 12:16:06;;;;;;;4.70;1.90;;;;;;;17.32;41.17;100773.25;107586;1287;23077;-83
2022/09/23 12:19:18;;;;;;;4.30;1.80;;;;;;;17.27;40.87;100770.77;108027;1287;22048;-80
2022/09/23 12:25:49;;;;;;;5.90;1.80;;;;;;;17.04;40.31;100766.99;110055;1259;21888;31
2022/09/23 12:29:12;;;;;;;2.90;1.60;;;;;;;16.93;40.55;100763.91;110133;1272;22054;-88
2022/09/23 12:49:02;;;;;;;3.40;2.30;;;;;;;16.97;41.65;100755.10;110336;1270;21978;-90
2022/09/23 12:52:34;;;;;;;3.20;1.80;;;;;;;16.92;41.76;100756.08;109609;1272;23079;-87
2022/09/23 12:55:41;;;;;;;4.30;3.10;;;;;;;16.96;41.74;100757.78;109260;1273;22593;-88
2022/09/23 12:58:56;;;;;;;5.00;2.40;;;;;;;16.98;41.70;100751.87;109215;1273;21959;-89
2022/09/23 13:01:40;;;;;;;12.80;3.20;;;;;;;17.02;41.70;100745.35;108981;1273;23039;-87
2022/09/23 13:08:26;;;;;;;7.60;2.00;;;;;;;17.08;40.85;100735.66;108972;1281;22006;-87
2022/09/23 13:11:11;;;;;;;;;;;;;;;;;;;;;
2022/09/23 13:14:06;;;;;;;3.50;2.20;;;;;;;17.12;41.11;100730.30;107908;1292;23073;-87
2022/09/23 13:16:45;;;;;;;9.90;2.80;;;;;;;17.18;40.84;100725.25;107445;1293;22547;-87
2022/09/23 13:19:28;;;;;;;3.10;2.00;;;;;;;17.20;40.61;100720.54;106633;1301;22037;-87
2022/09/23 13:23:03;;;;;;;;;;;;;;;;;;;;;
2022/09/23 13:26:25;;;;;;;3.00;2.10;;;;;;;17.18;40.40;100714.16;107202;1301;22140;-88
2022/09/23 13:29:47;;;;;;;3.00;2.30;;;;;;;17.17;40.66;100708.89;107454;1295;22986;-89
2022/09/23 13:32:37;;;;;;;4.60;1.70;;;;;;;17.14;40.71;100700.33;107496;1298;22022;-88
2022/09/23 13:35:26;;;;;;;2.40;1.80;;;;;;;17.12;40.83;100699.53;107672;1292;22084;-89
2022/09/23 13:38:49;;;;;;;5.60;2.40;;;;;;;17.05;40.69;100695.73;108028;1275;22008;-87
2022/09/23 13:42:09;;;;;;;4.40;2.00;;;;;;;16.87;40.28;100691.69;108922;1279;22034;-85
2022/09/23 13:44:59;;;;;;;2.30;1.60;;;;;;;16.77;40.67;100685.38;108469;1284;21995;-87
2022/09/23 13:47:36;;;;;;;3.70;2.30;;;;;;;16.74;40.85;100681.85;108275;1285;23801;-85
2022/09/23 13:50:28;;;;;;;3.00;1.90;;;;;;;16.71;41.08;100681.69;108428;1285;22005;-87
2022/09/23 13:53:29;;;;;;;2.90;1.90;;;;;;;16.68;41.09;100677.67;107991;1289;22650;-86
2022/09/23 13:56:36;;;;;;;3.30;2.50;;;;;;;16.66;41.10;100673.20;107820;1289;23692;-87
2022/09/23 13:59:28;;;;;;;2.80;1.90;;;;;;;16.59;40.93;100673.64;107696;1289;22021;-86
2022/09/23 14:02:12;;;;;;;5.00;2.40;;;;;;;16.54;40.61;100671.79;108120;1289;22015;-86